createdAt,value
2018-06-21T00:01:23.700Z,22.51
2018-06-21T00:03:08.680Z,22.51
2018-06-21T00:04:53.664Z,22.48
2018-06-21T00:06:38.641Z,22.51
2018-06-21T00:08:23.573Z,22.54
2018-06-21T00:10:08.554Z,22.43
2018-06-21T00:11:53.536Z,22.36
2018-06-21T00:13:38.520Z,22.36
2018-06-21T00:15:23.496Z,22.43
2018-06-21T00:17:08.427Z,22.43
2018-06-21T00:18:53.558Z,22.43
2018-06-21T00:20:38.535Z,22.44
2018-06-21T00:22:23.466Z,22.38
2018-06-21T00:24:08.398Z,22.41
2018-06-21T00:25:53.329Z,22.38
2018-06-21T00:27:38.306Z,22.36
2018-06-21T00:29:23.349Z,22.39
2018-06-21T00:31:08.261Z,22.38
2018-06-21T00:32:53.236Z,22.41
2018-06-21T00:34:38.165Z,22.35
2018-06-21T00:36:23.094Z,22.33
2018-06-21T00:38:08.075Z,22.43
2018-06-21T00:39:53.007Z,22.39
2018-06-21T00:41:38.141Z,22.44
2018-06-21T00:43:23.069Z,22.45
2018-06-21T00:45:08.001Z,22.45
2018-06-21T00:46:52.940Z,22.43
2018-06-21T00:48:38.096Z,22.43
2018-06-21T00:50:23.249Z,22.36
2018-06-21T00:52:08.351Z,22.38
2018-06-21T00:53:53.457Z,22.41
2018-06-21T00:55:38.560Z,22.43
2018-06-21T00:57:23.663Z,22.45
2018-06-21T00:59:08.815Z,22.44
2018-06-21T01:00:53.918Z,22.36
2018-06-21T01:02:39.020Z,22.39
2018-06-21T01:04:24.123Z,22.43
2018-06-21T01:06:09.226Z,22.43
2018-06-21T01:07:54.381Z,22.41
2018-06-21T01:09:39.479Z,22.38
2018-06-21T01:11:24.630Z,22.43
2018-06-21T01:13:09.781Z,22.38
2018-06-21T01:14:54.881Z,22.39
2018-06-21T01:16:40.133Z,22.30
2018-06-21T01:18:25.235Z,22.23
2018-06-21T01:20:10.343Z,22.10
2018-06-21T01:21:55.484Z,22.23
2018-06-21T01:23:40.584Z,22.22
2018-06-21T01:25:25.735Z,22.23
2018-06-21T01:27:10.832Z,22.26
2018-06-21T01:28:55.930Z,22.22
2018-06-21T01:30:41.029Z,22.22
2018-06-21T01:32:26.130Z,22.15
2018-06-21T01:34:11.232Z,22.18
2018-06-21T01:35:56.582Z,22.10
2018-06-21T01:37:41.684Z,22.08
2018-06-21T01:39:26.781Z,22.07
2018-06-21T01:41:11.935Z,21.92
2018-06-21T01:42:57.085Z,21.95
2018-06-21T01:44:42.186Z,21.92
2018-06-21T01:46:27.285Z,21.95
2018-06-21T01:48:12.385Z,21.93
2018-06-21T01:49:57.485Z,21.83
2018-06-21T01:51:42.687Z,21.99
2018-06-21T01:53:27.787Z,22.00
2018-06-21T01:55:12.889Z,22.04
2018-06-21T01:56:58.047Z,22.00
2018-06-21T01:58:43.188Z,22.02
2018-06-21T02:00:28.291Z,22.15
2018-06-21T02:02:13.443Z,22.15
2018-06-21T02:03:58.545Z,22.14
2018-06-21T02:05:43.645Z,22.15
2018-06-21T02:07:28.745Z,22.10
2018-06-21T02:09:13.846Z,22.02
2018-06-21T02:10:58.997Z,22.02
2018-06-21T02:12:44.096Z,22.04
2018-06-21T02:14:29.199Z,22.00
2018-06-21T02:16:14.350Z,22.04
2018-06-21T02:17:59.548Z,22.08
2018-06-21T02:19:44.649Z,22.07
2018-06-21T02:21:29.748Z,22.08
2018-06-21T02:23:14.849Z,22.02
2018-06-21T02:24:59.949Z,22.11
2018-06-21T02:26:45.102Z,22.13
2018-06-21T02:28:30.242Z,22.14
2018-06-21T02:30:15.343Z,22.14
2018-06-21T02:32:00.444Z,22.18
2018-06-21T02:33:45.595Z,22.13
2018-06-21T02:35:30.747Z,22.17
2018-06-21T02:37:15.848Z,22.23
2018-06-21T02:39:00.950Z,22.23
2018-06-21T02:40:46.057Z,22.18
2018-06-21T02:42:31.251Z,22.15
2018-06-21T02:44:16.354Z,22.25
2018-06-21T02:46:01.498Z,22.20
2018-06-21T02:47:46.601Z,22.20
2018-06-21T02:49:31.703Z,22.23
2018-06-21T02:51:16.859Z,22.22
2018-06-21T02:53:02.003Z,22.26
2018-06-21T02:54:47.109Z,22.36
2018-06-21T02:56:32.206Z,22.29
2018-06-21T02:58:17.308Z,22.26
2018-06-21T03:00:02.461Z,22.28
2018-06-21T03:01:47.611Z,22.23
2018-06-21T03:03:32.712Z,22.29
2018-06-21T03:05:17.815Z,22.23
2018-06-21T03:07:02.917Z,22.23
2018-06-21T03:08:48.125Z,22.29
2018-06-21T03:10:33.207Z,22.26
2018-06-21T03:12:18.312Z,22.25
2018-06-21T03:14:03.410Z,22.30
2018-06-21T03:15:48.513Z,22.25
2018-06-21T03:17:33.663Z,22.29
2018-06-21T03:19:18.811Z,22.39
2018-06-21T03:21:03.913Z,22.30
2018-06-21T03:22:49.016Z,22.33
2018-06-21T03:24:34.116Z,22.23
2018-06-21T03:26:19.218Z,22.22
2018-06-21T03:28:04.371Z,22.13
2018-06-21T03:29:49.471Z,22.07
2018-06-21T03:31:34.616Z,21.99
2018-06-21T03:33:19.716Z,21.99
2018-06-21T03:35:04.816Z,21.91
2018-06-21T03:36:49.920Z,21.93
2018-06-21T03:38:35.070Z,21.95
2018-06-21T03:40:20.223Z,22.06
2018-06-21T03:42:05.326Z,22.07
2018-06-21T03:43:50.426Z,22.10
2018-06-21T03:45:35.585Z,22.10
2018-06-21T03:47:20.678Z,22.20
2018-06-21T03:49:05.785Z,22.07
2018-06-21T03:50:50.883Z,22.11
2018-06-21T03:52:35.991Z,22.14
2018-06-21T03:54:21.084Z,22.10
2018-06-21T03:56:06.285Z,22.18
2018-06-21T03:57:51.385Z,22.20
2018-06-21T03:59:36.491Z,22.18
2018-06-21T04:01:21.590Z,22.15
2018-06-21T04:03:06.757Z,22.17
2018-06-21T04:04:51.846Z,22.26
2018-06-21T04:06:36.946Z,22.17
2018-06-21T04:08:22.057Z,22.11
2018-06-21T04:10:07.148Z,22.15
2018-06-21T04:11:52.301Z,22.13
2018-06-21T04:13:37.402Z,22.14
2018-06-21T04:15:22.505Z,22.13
2018-06-21T04:17:07.603Z,22.10
2018-06-21T04:18:52.705Z,22.08
2018-06-21T04:20:37.850Z,22.10
2018-06-21T04:22:23.000Z,22.18
2018-06-21T04:24:08.098Z,22.17
2018-06-21T04:25:53.254Z,22.14
2018-06-21T04:27:38.400Z,22.10
2018-06-21T04:29:23.560Z,22.15
2018-06-21T04:31:08.653Z,22.18
2018-06-21T04:32:53.758Z,22.15
2018-06-21T04:34:38.857Z,22.14
2018-06-21T04:36:23.959Z,22.17
2018-06-21T04:38:09.067Z,22.11
2018-06-21T04:39:54.164Z,22.10
2018-06-21T04:41:39.267Z,22.14
2018-06-21T04:43:24.418Z,22.08
2018-06-21T04:45:09.569Z,22.13
2018-06-21T04:46:54.718Z,22.20
2018-06-21T04:48:39.820Z,22.14
2018-06-21T04:50:24.922Z,22.08
2018-06-21T04:52:10.023Z,22.15
2018-06-21T04:53:55.125Z,22.11
2018-06-21T04:55:40.226Z,22.13
2018-06-21T04:57:25.327Z,22.00
2018-06-21T04:59:10.426Z,22.07
2018-06-21T05:00:55.525Z,22.06
2018-06-21T05:02:40.628Z,21.96
2018-06-21T05:04:25.778Z,21.91
2018-06-21T05:06:10.932Z,21.91
2018-06-21T05:07:56.032Z,21.98
2018-06-21T05:09:41.134Z,21.99
2018-06-21T05:11:26.232Z,22.06
2018-06-21T05:13:11.484Z,21.92
2018-06-21T05:14:56.583Z,21.98
2018-06-21T05:16:41.984Z,21.89
2018-06-21T05:18:27.085Z,22.00
2018-06-21T05:20:12.184Z,21.99
2018-06-21T05:21:57.287Z,21.95
2018-06-21T05:23:42.487Z,21.99
2018-06-21T05:25:27.596Z,21.89
2018-06-21T05:27:12.740Z,22.07
2018-06-21T05:28:57.837Z,21.98
2018-06-21T05:30:43.044Z,21.99
2018-06-21T05:32:28.290Z,21.99
2018-06-21T05:34:13.392Z,22.00
2018-06-21T05:35:58.495Z,22.08
2018-06-21T05:37:43.596Z,22.08
2018-06-21T05:39:28.696Z,22.06
2018-06-21T05:41:13.799Z,22.04
2018-06-21T05:42:58.902Z,22.07
2018-06-21T05:44:44.005Z,22.06
2018-06-21T05:46:29.106Z,21.98
2018-06-21T05:48:14.207Z,21.93
2018-06-21T05:49:59.356Z,21.89
2018-06-21T05:51:44.558Z,21.91
2018-06-21T05:53:29.660Z,21.89
2018-06-21T05:55:14.762Z,21.85
2018-06-21T05:56:59.864Z,21.85
2018-06-21T05:58:44.963Z,21.92
2018-06-21T06:00:30.064Z,21.92
2018-06-21T06:02:15.164Z,21.85
2018-06-21T06:04:00.264Z,21.91
2018-06-21T06:05:45.366Z,21.89
2018-06-21T06:07:30.517Z,21.95
2018-06-21T06:09:15.615Z,21.91
2018-06-21T06:11:00.767Z,21.89
2018-06-21T06:12:45.866Z,21.89
2018-06-21T06:14:31.017Z,21.98
2018-06-21T06:16:16.120Z,21.92
2018-06-21T06:18:01.223Z,22.04
2018-06-21T06:19:46.325Z,22.06
2018-06-21T06:21:31.431Z,22.06
2018-06-21T06:23:16.532Z,22.04
2018-06-21T06:25:01.634Z,22.17
2018-06-21T06:26:46.735Z,22.00
2018-06-21T06:28:32.033Z,22.13
2018-06-21T06:30:17.136Z,22.06
2018-06-21T06:32:02.286Z,22.11
2018-06-21T06:33:47.385Z,22.10
2018-06-21T06:35:32.486Z,22.14
2018-06-21T06:37:17.598Z,22.18
2018-06-21T06:39:02.740Z,22.13
2018-06-21T06:40:47.844Z,22.15
2018-06-21T06:42:32.954Z,22.11
2018-06-21T06:44:18.060Z,22.14
2018-06-21T06:46:03.210Z,22.11
2018-06-21T06:47:48.317Z,22.14
2018-06-21T06:49:33.566Z,22.13
2018-06-21T06:51:18.670Z,22.14
2018-06-21T06:53:03.925Z,22.17
2018-06-21T06:54:49.038Z,22.22
2018-06-21T06:56:34.131Z,22.23
2018-06-21T06:58:19.234Z,22.22
2018-06-21T07:00:04.339Z,22.25
2018-06-21T07:01:49.444Z,22.29
2018-06-21T07:03:34.546Z,22.26
2018-06-21T07:05:19.702Z,22.28
2018-06-21T07:07:04.801Z,22.28
2018-06-21T07:08:49.952Z,22.22
2018-06-21T07:10:35.053Z,22.26
2018-06-21T07:12:20.155Z,22.29
2018-06-21T07:14:05.348Z,22.23
2018-06-21T07:15:50.405Z,22.29
2018-06-21T07:17:35.505Z,22.26
2018-06-21T07:19:20.658Z,22.35
2018-06-21T07:21:05.760Z,22.26
2018-06-21T07:22:50.861Z,22.30
2018-06-21T07:24:35.970Z,22.28
2018-06-21T07:26:21.119Z,22.30
2018-06-21T07:28:06.272Z,22.26
2018-06-21T07:29:51.381Z,22.26
2018-06-21T07:31:36.480Z,22.26
2018-06-21T07:33:21.584Z,22.26
2018-06-21T07:35:06.688Z,22.22
2018-06-21T07:36:51.792Z,22.30
2018-06-21T07:38:36.947Z,22.28
2018-06-21T07:40:22.053Z,22.22
2018-06-21T07:42:07.202Z,22.29
2018-06-21T07:43:52.356Z,22.30
2018-06-21T07:45:37.509Z,22.32
2018-06-21T07:47:27.663Z,22.23
2018-06-21T07:49:12.768Z,22.38
2018-06-21T07:50:57.872Z,22.36
2018-06-21T07:52:42.977Z,22.28
2018-06-21T07:54:28.080Z,22.29
2018-06-21T07:56:13.184Z,22.28
2018-06-21T07:57:58.338Z,22.25
2018-06-21T07:59:43.440Z,22.26
2018-06-21T08:01:28.542Z,22.26
2018-06-21T08:03:13.693Z,22.30
2018-06-21T08:04:58.815Z,22.23
2018-06-21T08:06:43.951Z,22.25
2018-06-21T08:08:29.054Z,22.25
2018-06-21T08:10:14.159Z,22.26
2018-06-21T08:11:59.262Z,22.20
2018-06-21T08:13:44.368Z,22.17
2018-06-21T08:15:29.519Z,22.15
2018-06-21T08:17:14.626Z,22.14
2018-06-21T08:18:59.775Z,22.15
2018-06-21T08:20:44.879Z,22.13
2018-06-21T08:22:29.982Z,22.14
2018-06-21T08:24:15.137Z,22.11
2018-06-21T08:26:00.240Z,22.18
2018-06-21T08:27:45.396Z,22.25
2018-06-21T08:29:30.500Z,22.22
2018-06-21T08:31:15.603Z,22.26
2018-06-21T08:33:00.708Z,22.29
2018-06-21T08:34:45.813Z,22.23
2018-06-21T08:36:30.967Z,22.44
2018-06-21T08:38:16.072Z,22.43
2018-06-21T08:40:01.178Z,22.43
2018-06-21T08:41:46.331Z,22.44
2018-06-21T08:43:31.435Z,22.47
2018-06-21T08:45:16.593Z,22.48
2018-06-21T08:47:01.841Z,22.51
2018-06-21T08:48:46.946Z,22.53
2018-06-21T08:50:32.100Z,22.53
2018-06-21T08:52:17.203Z,22.47
2018-06-21T08:54:02.359Z,22.47
2018-06-21T08:55:47.461Z,22.36
2018-06-21T08:57:32.614Z,22.45
2018-06-21T08:59:17.767Z,22.43
2018-06-21T09:01:02.870Z,22.39
2018-06-21T09:02:48.023Z,22.39
2018-06-21T09:04:33.128Z,22.41
2018-06-21T09:06:18.234Z,22.47
2018-06-21T09:08:03.341Z,22.48
2018-06-21T09:09:48.444Z,22.53
2018-06-21T09:11:33.599Z,22.60
2018-06-21T09:13:18.703Z,22.66
2018-06-21T09:15:03.857Z,22.70
2018-06-21T09:16:49.011Z,22.75
2018-06-21T09:18:34.118Z,22.84
2018-06-21T09:20:19.223Z,22.93
2018-06-21T09:22:04.379Z,23.05
2018-06-21T09:23:49.483Z,23.03
2018-06-21T09:25:34.741Z,23.09
2018-06-21T09:27:19.844Z,23.20
2018-06-21T09:29:04.951Z,23.23
2018-06-21T09:30:50.059Z,23.24
2018-06-21T09:32:35.363Z,23.21
2018-06-21T09:34:20.472Z,23.25
2018-06-21T09:36:05.628Z,23.34
2018-06-21T09:37:50.782Z,23.20
2018-06-21T09:39:35.934Z,23.28
2018-06-21T09:41:21.042Z,23.23
2018-06-21T09:43:06.195Z,23.15
2018-06-21T09:44:51.299Z,23.25
2018-06-21T09:46:36.409Z,23.23
2018-06-21T09:48:21.565Z,23.27
2018-06-21T09:50:06.667Z,23.27
2018-06-21T09:51:51.772Z,23.32
2018-06-21T09:53:36.879Z,23.36
2018-06-21T09:55:22.284Z,23.32
2018-06-21T09:57:07.739Z,23.32
2018-06-21T09:58:52.845Z,23.41
2018-06-21T10:00:37.951Z,23.44
2018-06-21T10:02:23.109Z,23.47
2018-06-21T10:04:08.264Z,23.63
2018-06-21T10:05:53.372Z,23.74
2018-06-21T10:07:38.479Z,23.73
2018-06-21T10:09:23.587Z,23.81
2018-06-21T10:11:08.694Z,23.86
2018-06-21T10:12:53.801Z,23.98
2018-06-21T10:14:38.909Z,24.03
2018-06-21T10:16:24.064Z,24.08
2018-06-21T10:18:09.174Z,24.18
2018-06-21T10:19:54.345Z,24.17
2018-06-21T10:21:39.434Z,24.21
2018-06-21T10:23:24.595Z,24.29
2018-06-21T10:25:09.700Z,24.24
2018-06-21T10:26:54.808Z,24.35
2018-06-21T10:28:39.917Z,24.40
2018-06-21T10:30:30.028Z,24.38
2018-06-21T10:32:15.136Z,24.38
2018-06-21T10:34:00.245Z,24.36
2018-06-21T10:35:45.354Z,24.39
2018-06-21T10:37:30.511Z,24.42
2018-06-21T10:39:15.673Z,24.57
2018-06-21T10:41:00.778Z,24.53
2018-06-21T10:42:45.886Z,24.43
2018-06-21T10:44:30.992Z,24.47
2018-06-21T10:46:16.096Z,24.55
2018-06-21T10:48:01.252Z,24.50
2018-06-21T10:49:46.358Z,24.60
2018-06-21T10:51:31.466Z,24.57
2018-06-21T10:53:16.575Z,24.53
2018-06-21T10:55:01.782Z,24.50
2018-06-21T10:56:46.841Z,24.45
2018-06-21T10:58:31.947Z,24.63
2018-06-21T11:00:17.257Z,24.63
2018-06-21T11:02:02.417Z,24.63
2018-06-21T11:03:47.524Z,24.65
2018-06-21T11:05:32.633Z,24.55
2018-06-21T11:07:17.742Z,24.63
2018-06-21T11:09:02.850Z,24.77
2018-06-21T11:10:48.008Z,24.68
2018-06-21T11:12:33.170Z,24.77
2018-06-21T11:14:18.375Z,24.74
2018-06-21T11:16:03.632Z,24.81
2018-06-21T11:17:48.840Z,24.98
2018-06-21T11:19:34.101Z,25.11
2018-06-21T11:21:19.394Z,25.13
2018-06-21T11:23:04.517Z,25.17
2018-06-21T11:24:49.626Z,25.21
2018-06-21T11:26:34.738Z,25.23
2018-06-21T11:28:19.896Z,25.26
2018-06-21T11:30:05.006Z,25.18
2018-06-21T11:31:50.266Z,25.26
2018-06-21T11:33:35.830Z,25.21
2018-06-21T11:35:20.985Z,25.21
2018-06-21T11:37:06.149Z,25.35
2018-06-21T11:38:51.308Z,25.36
2018-06-21T11:40:36.417Z,25.35
2018-06-21T11:42:21.530Z,25.41
2018-06-21T11:44:06.887Z,25.53
2018-06-21T11:45:51.998Z,25.50
2018-06-21T11:50:55.836Z,25.68
2018-06-21T11:52:40.937Z,25.60
2018-06-21T11:54:26.044Z,25.72
2018-06-21T11:56:11.157Z,25.78
2018-06-21T11:57:56.266Z,25.81
2018-06-21T11:59:41.459Z,25.96
2018-06-21T12:01:26.536Z,26.13
2018-06-21T12:03:11.647Z,26.13
2018-06-21T12:04:56.756Z,26.09
2018-06-21T12:06:41.866Z,25.88
2018-06-21T12:08:27.027Z,25.87
2018-06-21T12:10:12.182Z,25.81
2018-06-21T12:11:57.341Z,25.81
2018-06-21T12:13:42.451Z,25.80
2018-06-21T12:15:27.565Z,25.84
2018-06-21T12:17:12.671Z,26.16
2018-06-21T12:18:57.780Z,26.18
2018-06-21T12:20:42.937Z,26.09
2018-06-21T12:22:28.050Z,25.98
2018-06-21T12:24:13.160Z,26.00
2018-06-21T12:25:58.333Z,26.00
2018-06-21T12:27:43.432Z,26.10
2018-06-21T12:29:28.543Z,26.18
2018-06-21T12:31:13.706Z,26.18
2018-06-21T12:32:58.867Z,26.22
2018-06-21T12:34:43.978Z,26.13
2018-06-21T12:36:29.093Z,26.10
2018-06-21T12:38:14.202Z,26.07
2018-06-21T12:39:59.365Z,26.19
2018-06-21T12:41:44.472Z,26.09
2018-06-21T12:43:29.638Z,26.00
2018-06-21T12:45:14.741Z,26.02
2018-06-21T12:46:59.901Z,25.80
2018-06-21T12:48:45.064Z,25.70
2018-06-21T12:50:30.169Z,25.60
2018-06-21T12:52:15.278Z,25.43
2018-06-21T12:54:00.387Z,25.41
2018-06-21T12:55:45.495Z,25.25
2018-06-21T12:57:30.605Z,25.22
2018-06-21T12:59:15.765Z,25.11
2018-06-21T13:01:00.878Z,25.16
2018-06-21T13:02:46.037Z,25.11
2018-06-21T13:04:31.148Z,25.10
2018-06-21T13:06:16.304Z,25.17
2018-06-21T13:08:01.413Z,25.26
2018-06-21T13:09:46.521Z,25.23
2018-06-21T13:11:31.876Z,25.25
2018-06-21T13:13:16.985Z,25.21
2018-06-21T13:15:02.095Z,25.28
2018-06-21T13:16:47.252Z,25.22
2018-06-21T13:18:32.408Z,25.25
2018-06-21T13:20:17.613Z,25.23
2018-06-21T13:22:02.722Z,25.26
2018-06-21T13:23:47.827Z,25.23
2018-06-21T13:25:32.938Z,25.23
2018-06-21T13:27:18.090Z,25.22
2018-06-21T13:29:03.248Z,25.14
2018-06-21T13:30:48.354Z,25.06
2018-06-21T13:32:33.460Z,25.08
2018-06-21T13:34:18.607Z,25.04
2018-06-21T13:36:03.757Z,25.10
2018-06-21T13:37:48.914Z,25.14
2018-06-21T13:39:34.072Z,25.18
2018-06-21T13:41:19.177Z,25.22
2018-06-21T13:43:04.284Z,25.40
2018-06-21T13:44:49.393Z,25.33
2018-06-21T13:46:34.550Z,25.36
2018-06-21T13:48:19.652Z,25.23
2018-06-21T13:50:04.759Z,25.18
2018-06-21T13:51:49.869Z,25.11
2018-06-21T13:53:34.972Z,24.98
2018-06-21T13:55:20.094Z,25.04
2018-06-21T13:57:05.231Z,25.10
2018-06-21T13:58:50.340Z,25.01
2018-06-21T14:00:35.642Z,25.07
2018-06-21T14:02:20.744Z,25.08
2018-06-21T14:04:05.903Z,25.06
2018-06-21T14:05:51.006Z,25.04
2018-06-21T14:07:36.154Z,25.13
2018-06-21T14:09:21.318Z,25.17
2018-06-21T14:11:06.424Z,25.25
2018-06-21T14:12:51.591Z,25.47
2018-06-21T14:14:36.643Z,25.77
2018-06-21T14:16:21.752Z,25.84
2018-06-21T14:18:06.912Z,26.10
2018-06-21T14:19:52.117Z,26.25
2018-06-21T14:21:37.273Z,26.38
2018-06-21T14:23:22.384Z,26.38
2018-06-21T14:25:07.492Z,26.38
2018-06-21T14:26:52.602Z,26.38
2018-06-21T14:28:37.714Z,26.29
2018-06-21T14:30:22.820Z,26.21
2018-06-21T14:32:07.932Z,26.23
2018-06-21T14:33:53.190Z,26.36
2018-06-21T14:35:38.397Z,26.45
2018-06-21T14:37:23.508Z,26.47
2018-06-21T14:39:08.670Z,26.51
2018-06-21T14:40:53.873Z,26.51
2018-06-21T14:42:38.983Z,26.60
2018-06-21T14:44:24.145Z,26.56
2018-06-21T14:46:09.301Z,26.48
2018-06-21T14:47:54.648Z,26.36
2018-06-21T14:49:39.570Z,26.28
2018-06-21T14:51:24.731Z,26.28
2018-06-21T14:53:09.841Z,26.23
2018-06-21T14:54:54.951Z,26.37
2018-06-21T14:56:40.061Z,26.26
2018-06-21T14:58:25.221Z,26.22
2018-06-21T15:00:10.332Z,26.22
2018-06-21T15:01:55.444Z,26.22
2018-06-21T15:03:40.553Z,26.16
2018-06-21T15:05:25.819Z,26.15
2018-06-21T15:07:10.824Z,26.10
2018-06-21T15:08:55.994Z,26.10
2018-06-21T15:10:41.097Z,26.07
2018-06-21T15:12:26.304Z,25.99
2018-06-21T15:14:11.461Z,25.98
2018-06-21T15:15:56.620Z,25.98
2018-06-21T15:17:41.730Z,25.99
2018-06-21T15:19:26.841Z,26.00
2018-06-21T15:21:11.956Z,25.88
2018-06-21T15:22:57.166Z,25.87
2018-06-21T15:24:42.270Z,25.85
2018-06-21T15:26:27.435Z,25.88
2018-06-21T15:28:12.542Z,25.85
2018-06-21T15:29:57.702Z,25.84
2018-06-21T15:31:42.860Z,25.84
2018-06-21T15:33:27.971Z,25.90
2018-06-21T15:35:13.081Z,25.83
2018-06-21T15:36:58.241Z,25.84
2018-06-21T15:38:43.351Z,25.83
2018-06-21T15:40:28.515Z,25.85
2018-06-21T15:42:13.618Z,25.83
2018-06-21T15:43:58.875Z,25.91
2018-06-21T15:45:43.983Z,25.90
2018-06-21T15:47:29.139Z,25.85
2018-06-21T15:49:14.248Z,25.85
2018-06-21T15:50:59.407Z,25.80
2018-06-21T15:52:00.042Z,25.85
2018-06-21T15:53:00.682Z,25.83
2018-06-21T15:54:01.277Z,25.91
2018-06-21T15:55:01.870Z,25.83
2018-06-21T15:56:02.465Z,25.87
2018-06-21T15:57:03.058Z,25.85
2018-06-21T15:58:03.654Z,25.87
2018-06-21T15:59:04.249Z,25.90
2018-06-21T16:00:04.893Z,25.85
2018-06-21T16:01:05.505Z,25.87
2018-06-21T16:02:06.082Z,25.85
2018-06-21T16:03:06.734Z,25.84
2018-06-21T16:04:07.355Z,25.87
2018-06-21T16:05:08.148Z,25.85
2018-06-21T16:06:08.784Z,25.87
2018-06-21T16:07:09.379Z,25.87
2018-06-21T16:08:09.969Z,25.87
2018-06-21T16:09:10.555Z,25.88
2018-06-21T16:10:11.200Z,25.88
2018-06-21T16:12:12.384Z,25.80
2018-06-21T16:13:13.026Z,25.83
2018-06-21T16:14:13.614Z,25.85
2018-06-21T16:15:14.209Z,25.83
2018-06-21T16:16:14.799Z,25.84
2018-06-21T16:17:15.392Z,25.85
2018-06-21T16:18:15.978Z,25.83
2018-06-21T16:19:16.567Z,25.81
2018-06-21T16:20:17.218Z,25.85
2018-06-21T16:21:17.857Z,25.88
2018-06-21T16:22:18.497Z,25.80
2018-06-21T16:23:19.084Z,25.83
2018-06-21T16:24:19.679Z,25.81
2018-06-21T16:25:20.274Z,25.88
2018-06-21T16:26:20.868Z,25.88
2018-06-21T16:27:21.507Z,25.80
2018-06-21T16:28:22.123Z,25.85
2018-06-21T16:29:22.739Z,25.84
2018-06-21T16:30:23.336Z,25.87
2018-06-21T16:31:23.924Z,25.85
2018-06-21T16:32:24.522Z,25.87
2018-06-21T16:33:25.106Z,25.84
2018-06-21T16:34:25.706Z,25.88
2018-06-21T16:35:26.341Z,25.83
2018-06-21T16:36:26.928Z,25.84
2018-06-21T16:37:27.571Z,25.84
2018-06-21T16:38:28.164Z,25.88
2018-06-21T16:39:28.808Z,25.90
2018-06-21T16:40:29.448Z,25.84
2018-06-21T16:41:30.036Z,26.02
2018-06-21T16:42:30.632Z,25.98
2018-06-21T16:43:31.225Z,25.96
2018-06-21T16:44:31.820Z,25.99
2018-06-21T16:45:32.468Z,26.07
2018-06-21T16:46:33.063Z,26.13
2018-06-21T16:47:33.651Z,26.19
2018-06-21T16:48:34.246Z,26.21
2018-06-21T16:49:34.839Z,26.25
2018-06-21T16:50:35.429Z,26.43
2018-06-21T16:51:36.025Z,26.51
2018-06-21T16:52:36.615Z,26.56
2018-06-21T16:53:37.263Z,26.58
2018-06-21T16:54:37.958Z,26.55
2018-06-21T16:55:38.547Z,26.59
2018-06-21T16:56:39.144Z,26.59
2018-06-21T16:57:39.739Z,26.59
2018-06-21T16:58:40.329Z,26.60
2018-06-21T16:59:40.975Z,26.56
2018-06-21T17:00:41.570Z,26.59
2018-06-21T17:01:42.156Z,26.52
2018-06-21T17:02:42.756Z,26.60
2018-06-21T17:03:43.344Z,26.52
2018-06-21T17:04:43.941Z,26.53
2018-06-21T17:05:44.535Z,26.40
2018-06-21T17:06:45.133Z,26.53
2018-06-21T17:07:45.777Z,26.47
2018-06-21T17:08:46.368Z,26.43
2018-06-21T17:09:47.059Z,26.45
2018-06-21T17:10:47.656Z,26.41
2018-06-21T17:11:48.295Z,26.36
2018-06-21T17:12:48.885Z,26.28
2018-06-21T17:13:49.477Z,26.28
2018-06-21T17:14:50.071Z,26.19
2018-06-21T17:15:50.673Z,26.13
2018-06-21T17:16:51.259Z,26.13
2018-06-21T17:17:51.852Z,26.18
2018-06-21T17:18:52.449Z,26.10
2018-06-21T17:19:53.038Z,26.05
2018-06-21T17:20:53.632Z,26.09
2018-06-21T17:21:54.229Z,25.99
2018-06-21T17:22:54.823Z,26.03
2018-06-21T17:23:55.458Z,25.88
2018-06-21T17:24:56.050Z,25.85
2018-06-21T17:25:56.646Z,25.83
2018-06-21T17:26:57.337Z,25.93
2018-06-21T17:27:57.930Z,25.88
2018-06-21T17:28:58.573Z,25.85
2018-06-21T17:29:59.162Z,25.84
2018-06-21T17:30:59.952Z,25.75
2018-06-21T17:32:00.547Z,25.75
2018-06-21T17:33:01.142Z,25.78
2018-06-21T17:34:01.833Z,25.70
2018-06-21T17:35:02.425Z,25.65
2018-06-21T17:36:03.093Z,25.65
2018-06-21T17:37:03.721Z,25.65
2018-06-21T17:38:04.251Z,25.69
2018-06-21T17:39:04.846Z,25.59
2018-06-21T17:40:05.533Z,25.58
2018-06-21T17:41:06.124Z,25.54
2018-06-21T17:42:06.711Z,25.54
2018-06-21T17:43:07.303Z,25.55
2018-06-21T17:44:07.892Z,25.48
2018-06-21T17:45:08.478Z,25.55
2018-06-21T17:46:09.069Z,25.46
2018-06-21T17:47:09.662Z,25.47
2018-06-21T17:48:10.299Z,25.43
2018-06-21T17:49:10.894Z,25.47
2018-06-21T17:50:11.486Z,25.38
2018-06-21T17:51:12.074Z,25.36
2018-06-21T17:52:12.714Z,25.35
2018-06-21T17:53:13.302Z,25.36
2018-06-21T17:54:13.892Z,25.35
2018-06-21T17:55:14.488Z,25.36
2018-06-21T17:56:15.081Z,25.23
2018-06-21T17:57:15.670Z,25.22
2018-06-21T17:58:16.309Z,25.28
2018-06-21T17:59:16.897Z,25.22
2018-06-21T18:00:17.490Z,25.16
2018-06-21T18:01:18.080Z,25.17
2018-06-21T18:02:18.666Z,25.11
2018-06-21T18:03:19.414Z,25.13
2018-06-21T18:04:20.007Z,25.10
2018-06-21T18:05:20.654Z,25.08
2018-06-21T18:06:21.241Z,25.10
2018-06-21T18:07:21.835Z,25.08
2018-06-21T18:08:22.424Z,25.04
2018-06-21T18:09:23.017Z,25.01
2018-06-21T18:10:23.610Z,24.95
2018-06-21T18:11:24.247Z,24.91
2018-06-21T18:12:24.836Z,24.88
2018-06-21T18:13:25.477Z,24.85
2018-06-21T18:14:26.066Z,24.85
2018-06-21T18:15:26.662Z,24.81
2018-06-21T18:16:27.256Z,24.81
2018-06-21T18:17:27.843Z,24.76
2018-06-21T18:18:28.438Z,24.80
2018-06-21T18:19:29.083Z,24.76
2018-06-21T18:20:29.616Z,24.69
2018-06-21T18:21:30.212Z,24.69
2018-06-21T18:22:30.804Z,24.70
2018-06-21T18:23:31.444Z,24.70
2018-06-21T18:24:32.030Z,24.61
2018-06-21T18:25:32.625Z,24.63
2018-06-21T18:26:33.215Z,24.63
2018-06-21T18:27:33.802Z,24.57
2018-06-21T18:28:34.448Z,24.65
2018-06-21T18:29:35.083Z,24.61
2018-06-21T18:30:35.682Z,24.65
2018-06-21T18:31:36.271Z,24.66
2018-06-21T18:32:36.853Z,24.57
2018-06-21T18:33:37.449Z,24.61
2018-06-21T18:34:38.031Z,24.60
2018-06-21T18:35:38.618Z,24.61
2018-06-21T18:36:39.204Z,24.60
2018-06-21T18:37:39.834Z,24.58
2018-06-21T18:38:40.423Z,24.53
2018-06-21T18:39:41.017Z,24.57
2018-06-21T18:40:41.610Z,24.55
2018-06-21T18:41:42.199Z,24.40
2018-06-21T18:42:42.841Z,24.53
2018-06-21T18:43:43.432Z,24.50
2018-06-21T18:44:44.019Z,24.47
2018-06-21T18:45:44.661Z,24.43
2018-06-21T18:46:45.251Z,24.45
2018-06-21T18:47:45.841Z,24.39
2018-06-21T18:48:46.436Z,24.38
2018-06-21T18:49:47.028Z,24.40
2018-06-21T18:50:47.617Z,24.33
2018-06-21T18:51:48.252Z,24.23
2018-06-21T18:52:48.967Z,24.24
2018-06-21T18:53:49.477Z,24.13
2018-06-21T18:54:50.066Z,24.14
2018-06-21T18:55:50.656Z,24.13
2018-06-21T18:56:51.247Z,24.13
2018-06-21T18:57:51.838Z,24.10
2018-06-21T18:58:52.497Z,24.02
2018-06-21T18:59:53.111Z,24.08
2018-06-21T19:00:53.705Z,24.08
2018-06-21T19:01:54.295Z,23.95
2018-06-21T19:02:54.933Z,24.02
2018-06-21T19:03:55.516Z,23.88
2018-06-21T19:04:56.100Z,23.92
2018-06-21T19:05:56.694Z,23.92
2018-06-21T19:06:57.282Z,23.86
2018-06-21T19:07:57.873Z,23.84
2018-06-21T19:08:58.462Z,23.83
2018-06-21T19:09:59.098Z,23.87
2018-06-21T19:10:59.684Z,23.84
2018-06-21T19:12:00.272Z,23.91
2018-06-21T19:13:00.865Z,23.87
2018-06-21T19:14:01.452Z,23.84
2018-06-21T19:15:02.042Z,23.88
2018-06-21T19:16:02.624Z,23.87
2018-06-21T19:17:03.218Z,23.77
2018-06-21T19:18:03.805Z,23.81
2018-06-21T19:19:04.438Z,23.80
2018-06-21T19:20:05.080Z,23.84
2018-06-21T19:21:05.670Z,23.78
2018-06-21T19:22:06.257Z,23.77
2018-06-21T19:23:06.883Z,23.77
2018-06-21T19:24:07.468Z,23.74
2018-06-21T19:25:08.103Z,23.73
2018-06-21T19:26:08.693Z,23.77
2018-06-21T19:27:09.283Z,23.71
2018-06-21T19:28:10.092Z,23.74
2018-06-21T19:29:10.653Z,23.84
2018-06-21T19:30:11.240Z,23.71
2018-06-21T19:31:11.846Z,23.73
2018-06-21T19:32:12.413Z,23.81
2018-06-21T19:33:13.005Z,23.69
2018-06-21T19:34:13.592Z,23.65
2018-06-21T19:35:14.180Z,23.73
2018-06-21T19:36:14.770Z,23.68
2018-06-21T19:37:15.351Z,23.71
2018-06-21T19:38:15.991Z,23.69
2018-06-21T19:39:16.622Z,23.69
2018-06-21T19:40:17.209Z,23.71
2018-06-21T19:41:17.790Z,23.66
2018-06-21T19:42:18.381Z,23.58
2018-06-21T19:43:19.133Z,23.68
2018-06-21T19:44:19.597Z,23.66
2018-06-21T19:45:20.190Z,23.66
2018-06-21T19:46:20.777Z,23.63